Vail, Washington
Current Conditions -  °F | °C
As of 9:54 AM on Saturday 25 Oct 2014 (Local Time) from KOLM Reporting Station
Haze Haze  
Wind Chill: 52°   Ceiling: 7000
Heat Index: 52°   Visibility: 5mi
Dew Point: 50°   Wind: 7mph
Humidity: 93%   Direction: 20°NNE
Pressure: 29.47"   Gusts: NA
Location:  46.8214°N, 122.662°W
Report Text: KOLM 251654Z 02006KT 5SM BR FEW002 BKN070 OVC075 11/10 A2947 RMK AO2 RAE13 SLP981 P0002 T01110100
Loading
Personal Weather Stations






























Interactive Weather Map
Tropical Storm Tracking
New forecast layout! Learn more

10-Day Weather Forecast

Advertisements
Track Severe Weather on mobile